Time;durP1;ratioP1;P1;durP2;ratioP2;P2;SDS_P1;SDS_P2;PMS_P1;PMS_P2;Temp;Humidity;BMP_temperature;BMP_pressure;BME280_temperature;BME280_humidity;BME280_pressure;Samples;Min_cycle;Max_cycle;Signal;HPM_P1;HPM_P2
2022/11/13 00:02:53;;;;;;;;;;;;;;;3.03;100.00;96730.63;10511539;28;2855;-69
2022/11/13 00:08:00;;;;;;;;;;;;;;;3.05;100.00;96719.78;10518577;28;2949;-73
2022/11/13 00:13:03;;;;;;;;;;;;;;;3.16;100.00;96720.00;10508211;28;2854;-70
2022/11/13 00:18:06;;;;;;;;;;;;;;;3.04;100.00;96712.84;10509047;28;2883;-70
2022/11/13 00:23:09;;;;;;;;;;;;;;;3.06;100.00;96708.19;10516190;28;3008;-68
2022/11/13 00:28:13;;;;;;;;;;;;;;;3.01;100.00;96700.81;10518891;28;2879;-69
2022/11/13 00:33:16;;;;;;;;;;;;;;;3.11;100.00;96685.25;10506113;28;2918;-69
2022/11/13 00:38:40;;;;;;;;;;;;;;;3.09;100.00;96684.66;10516842;28;2926;-72
2022/11/13 00:43:43;;;;;;;;;;;;;;;2.98;100.00;96683.41;10503626;28;2832;-76
2022/11/13 00:48:46;;;;;;;;;;;;;;;2.84;100.00;96680.97;10512375;28;2871;-78
2022/11/13 00:53:49;;;;;;;;;;;;;;;2.88;100.00;96680.38;10507398;28;2910;-75
2022/11/13 00:58:52;;;;;;;;;;;;;;;2.76;100.00;96668.72;10502423;28;3194;-69
2022/11/13 01:03:55;;;;;;;;;;;3.70;99.90;;;2.86;100.00;96658.50;10512387;28;3190;-69
2022/11/13 01:08:58;;;;;;;;;;;3.30;99.90;;;2.98;100.00;96656.84;10511662;28;3178;-69
2022/11/13 01:14:01;;;;;;;;;;;3.70;99.90;;;2.82;100.00;96648.50;10508402;28;3040;-70
2022/11/13 01:19:04;;;;;;;;;;;3.60;99.90;;;2.90;100.00;96650.94;10504431;28;3179;-69
2022/11/13 01:24:06;;;;;;;;;;;3.60;99.90;;;2.99;100.00;96631.16;10528548;28;3139;-70
2022/11/13 01:29:09;;;;;;;;;;;3.80;99.90;;;2.83;100.00;96635.00;10517575;28;3181;-67
2022/11/13 01:34:12;;;;;;;;;;;4.00;99.90;;;2.63;100.00;96627.03;10508096;28;3274;-70
2022/11/13 01:39:15;;;;;;;;;;;3.70;99.90;;;2.59;100.00;96625.78;10518597;28;3277;-69
2022/11/13 01:44:20;;;;;;;;;;;;;;;2.66;100.00;96621.31;10506428;28;3280;-71
2022/11/13 01:49:23;;;;;;;;;;;;;;;2.53;100.00;96602.72;10504230;28;3174;-69
2022/11/13 01:54:26;;;;;;;;;;;;;;;2.71;100.00;96602.13;10515418;28;3132;-69
2022/11/13 01:59:29;;;;;;;;;;;;;;;2.55;100.00;96597.22;10506839;28;3285;-68
2022/11/13 02:04:32;;;;;;;;;;;;;;;2.35;100.00;96594.50;10500727;28;3148;-68
2022/11/13 02:09:35;;;;;;;;;;;;;;;2.11;100.00;96591.44;10509365;28;3178;-68
2022/11/13 02:14:39;;;;;;;;;;;;;;;2.07;100.00;96598.13;10505099;28;3186;-70
2022/11/13 02:19:41;;;;;;;;;;;3.10;99.90;;;2.19;100.00;96590.41;10496642;28;3154;-70
2022/11/13 02:24:44;;;;;;;;;;;3.20;99.90;;;2.00;100.00;96583.22;10512419;28;3148;-68
2022/11/13 02:29:57;;;;;;;;;;;;;;;2.02;100.00;96579.34;10503296;28;3485;-69
2022/11/13 02:35:03;;;;;;;;;;;;;;;2.07;100.00;96568.97;10509021;28;3123;-68
2022/11/13 02:40:08;;;;;;;;;;;;;;;2.02;100.00;96560.78;10500216;28;3222;-68
2022/11/13 02:45:19;;;;;;;;;;;;;;;2.13;100.00;96554.91;10505701;28;3100;-68
2022/11/13 02:50:22;;;;;;;;;;;;;;;2.03;100.00;96543.03;10495546;28;3191;-68
2022/11/13 02:55:25;;;;;;;;;;;;;;;1.91;100.00;96540.19;10501531;28;3189;-69
2022/11/13 03:00:28;;;;;;;;;;;;;;;1.89;100.00;96542.19;10498665;28;3131;-69
2022/11/13 03:05:33;;;;;;;;;;;;;;;1.81;100.00;96527.28;10502722;28;3222;-68
2022/11/13 03:10:36;;;;;;;;;;;;;;;1.69;100.00;96525.41;10501505;28;3206;-68
2022/11/13 03:15:40;;;;;;;;;;;;;;;1.89;100.00;96513.84;10510234;28;3186;-69
2022/11/13 03:20:46;;;;;;;;;;;;;;;1.88;100.00;96512.22;10499900;28;3159;-69
2022/11/13 03:25:49;;;;;;;;;;;;;;;1.87;100.00;96515.06;10505365;28;3187;-69
2022/11/13 03:30:52;;;;;;;;;;;;;;;1.82;100.00;96517.50;10503403;28;3162;-71
2022/11/13 03:35:54;;;;;;;;;;;2.70;99.90;;;1.58;100.00;96505.59;10513442;28;3114;-73
2022/11/13 03:40:58;;;;;;;;;;;;;;;1.41;100.00;96499.88;10515510;28;3218;-75
2022/11/13 03:46:01;;;;;;;;;;;;;;;1.31;100.00;96478.22;10511896;28;3187;-69
2022/11/13 03:51:04;;;;;;;;;;;;;;;1.47;100.00;96471.75;10509755;28;3179;-68
2022/11/13 03:56:07;;;;;;;;;;;;;;;1.34;100.00;96473.34;10508830;28;3237;-71
2022/11/13 04:01:12;;;;;;;;;;;;;;;1.39;100.00;96470.06;10511528;28;3163;-70
2022/11/13 04:06:16;;;;;;;;;;;;;;;1.40;100.00;96470.91;10508458;28;3155;-75
2022/11/13 04:11:19;;;;;;;;;;;;;;;1.45;100.00;96464.00;10512076;28;3301;-67
2022/11/13 04:16:25;;;;;;;;;;;;;;;1.24;100.00;96464.13;10513957;28;3238;-69
2022/11/13 04:21:28;;;;;;;;;;;;;;;1.10;100.00;96455.31;10503200;28;3229;-69
2022/11/13 04:26:31;;;;;;;;;;;;;;;1.37;100.00;96466.81;10515619;28;3187;-68
2022/11/13 04:31:34;;;;;;;;;;;;;;;1.06;100.00;96465.47;10516082;28;3114;-71
2022/11/13 04:36:37;;;;;;;;;;;;;;;0.98;100.00;96452.41;10520596;28;3111;-74
2022/11/13 04:46:58;;;;;;;;;;;;;;;1.07;100.00;96435.34;10479426;28;3162;-76
2022/11/13 04:52:01;;;;;;;;;;;;;;;1.01;100.00;96440.59;10507521;28;3163;-77
2022/11/13 04:57:04;;;;;;;;;;;;;;;1.04;100.00;96419.84;10506728;28;3128;-69
2022/11/13 05:02:07;;;;;;;;;;;;;;;0.92;100.00;96429.38;10505095;28;3175;-68
2022/11/13 05:07:10;;;;;;;;;;;;;;;0.89;100.00;96427.13;10510759;28;3190;-69
2022/11/13 05:12:13;;;;;;;;;;;;;;;0.78;100.00;96423.19;10511506;28;3239;-71
2022/11/13 05:17:17;;;;;;;;;;;;;;;0.86;100.00;96427.50;10504557;28;3102;-68
2022/11/13 05:22:20;;;;;;;;;;;;;;;1.11;100.00;96413.75;10501491;28;3548;-68
2022/11/13 05:27:23;;;;;;;;;;;;;;;1.20;100.00;96401.97;10513003;28;3126;-69
2022/11/13 05:32:27;;;;;;;;;;;;;;;1.14;100.00;96408.06;10507746;28;3172;-68
2022/11/13 05:37:30;;;;;;;;;;;;;;;1.04;100.00;96388.09;10503949;28;3166;-68
2022/11/13 05:42:33;;;;;;;;;;;;;;;0.95;100.00;96388.44;10502606;28;3202;-68
2022/11/13 05:47:36;;;;;;;;;;;;;;;0.88;100.00;96380.47;10512346;28;3228;-68
2022/11/13 05:52:39;;;;;;;;;;;;;;;0.68;100.00;96361.06;10500956;28;3135;-68
2022/11/13 05:57:43;;;;;;;;;;;;;;;0.51;100.00;96376.47;10518425;28;3138;-68
2022/11/13 06:02:46;;;;;;;;;;;;;;;0.68;100.00;96376.94;10517906;28;3193;-68
2022/11/13 06:07:49;;;;;;;;;;;;;;;0.73;100.00;96361.28;10519500;28;3256;-69
2022/11/13 06:12:52;;;;;;;;;;;;;;;0.75;100.00;96370.66;10502406;28;3115;-69
2022/11/13 06:17:55;;;;;;;;;;;;;;;0.61;100.00;96354.94;10501908;28;3189;-69
2022/11/13 06:22:58;;;;;;;;;;;;;;;0.70;100.00;96348.44;10505167;28;3223;-69
2022/11/13 06:28:05;;;;;;;;;;;;;;;0.58;100.00;96350.03;10513528;28;3346;-69
2022/11/13 06:33:08;;;;;;;;;;;;;;;0.66;100.00;96342.75;10511367;28;3442;-71
2022/11/13 06:38:11;;;;;;;;;;;;;;;0.89;100.00;96342.44;10498060;28;3265;-70
2022/11/13 06:43:15;;;;;;;;;;;;;;;1.07;100.00;96331.25;10509683;28;3246;-71
2022/11/13 06:48:18;;;;;;;;;;;;;;;0.85;100.00;96320.00;10510596;28;3313;-69
2022/11/13 06:53:21;;;;;;;;;;;;;;;1.02;100.00;96316.00;10509498;28;3151;-69
2022/11/13 06:58:24;;;;;;;;;;;;;;;0.84;100.00;96299.84;10515921;28;3286;-69
2022/11/13 07:03:28;;;;;;;;;;;;;;;0.99;100.00;96268.72;10503027;28;3564;-70
2022/11/13 07:08:31;;;;;;;;;;;;;;;1.17;100.00;96272.63;10510624;28;3195;-75
2022/11/13 07:13:34;;;;;;;;;;;;;;;1.35;100.00;96288.75;10510408;28;3151;-77
2022/11/13 07:18:37;;;;;;;;;;;;;;;1.50;100.00;96276.09;10521042;28;3155;-69
2022/11/13 07:23:42;;;;;;;;;;;;;;;1.28;100.00;96274.69;10510059;28;3564;-71
2022/11/13 07:28:45;;;;;;;;;;;;;;;1.48;100.00;96264.91;10509955;28;3162;-69
2022/11/13 07:33:48;;;;;;;;;;;;;;;1.80;100.00;96271.19;10514690;28;3132;-70
2022/11/13 07:38:51;;;;;;;;;;;;;;;1.54;100.00;96273.88;10516344;28;3163;-69
2022/11/13 07:44:01;;;;;;;;;;;;;;;1.73;100.00;96290.78;10515111;28;3191;-68
2022/11/13 07:49:09;;;;;;;;;;;;;;;1.55;100.00;96309.94;10515659;28;3130;-70
2022/11/13 07:54:13;;;;;;;;;;;;;;;1.84;100.00;96321.94;10516921;28;3075;-68
2022/11/13 07:59:16;;;;;;;;;;;;;;;1.89;100.00;96319.50;10505628;28;3163;-69
2022/11/13 08:04:19;;;;;;;;;;;;;;;1.99;100.00;96311.94;10513730;28;3159;-71
2022/11/13 08:09:22;;;;;;;;;;;;;;;2.32;100.00;96311.06;10513508;28;3245;-70
2022/11/13 08:14:25;;;;;;;;;;;;;;;2.51;100.00;96294.25;10513161;28;3174;-72
2022/11/13 08:19:28;;;;;;;;;;;;;;;2.88;100.00;96292.66;10515289;28;3215;-72
2022/11/13 08:24:31;;;;;;;;;;;;;;;2.87;100.00;96271.66;10513377;28;3233;-78
2022/11/13 08:29:36;;;;;;;;;;;;;;;2.80;100.00;96261.06;10515794;28;3175;-86
2022/11/13 08:34:39;;;;;;;;;;;;;;;3.06;100.00;96265.41;10515601;28;3263;-78
2022/11/13 08:39:42;;;;;;;;;;;;;;;3.16;100.00;96262.25;10505606;28;3449;-73
2022/11/13 08:44:45;;;;;;;;;;;;;;;3.17;100.00;96264.69;10515581;28;3242;-72
2022/11/13 08:49:49;;;;;;;;;;;;;;;3.52;100.00;96254.41;10510765;28;3230;-77
2022/11/13 08:54:53;;;;;;;;;;;;;;;3.14;100.00;96261.66;10516215;28;3159;-75
2022/11/13 08:59:56;;;;;;;;;;;;;;;2.89;100.00;96256.31;10518900;28;3505;-76
2022/11/13 09:04:59;;;;;;;;;;;;;;;3.01;100.00;96251.94;10517151;28;3190;-73
2022/11/13 09:10:02;;;;;;;;;;;;;;;3.50;100.00;96253.03;10509176;28;3138;-71
2022/11/13 09:15:06;;;;;;;;;;;;;;;3.33;100.00;96254.59;10512078;28;3176;-70
2022/11/13 09:20:09;;;;;;;;;;;;;;;3.39;100.00;96259.03;10508553;28;3234;-73
2022/11/13 09:25:16;;;;;;;;;;;;;;;3.49;100.00;96248.72;10511795;28;3173;-72
2022/11/13 09:30:19;;;;;;;;;;;;;;;3.76;100.00;96239.50;10514224;28;3108;-70
2022/11/13 09:35:33;;;;;;;;;;;;;;;4.11;100.00;96236.25;10507496;28;3172;-72
2022/11/13 09:40:37;;;;;;;;;;;;;;;4.00;100.00;96218.38;10522096;28;3269;-72
2022/11/13 09:45:40;;;;;;;;;;;;;;;3.96;100.00;96233.16;10506709;28;3256;-72
2022/11/13 09:50:43;;;;;;;;;;;;;;;4.03;100.00;96212.63;10504428;28;3115;-71
2022/11/13 09:55:48;;;;;;;;;;;;;;;4.29;100.00;96207.00;10512021;28;3174;-73
2022/11/13 10:00:50;;;;;;;;;;;5.00;99.90;;;4.63;100.00;96190.59;10518274;28;3183;-71
2022/11/13 10:05:53;;;;;;;;;;;;;;;4.54;100.00;96184.78;10511480;28;3183;-71
2022/11/13 10:10:57;;;;;;;;;;;;;;;4.42;100.00;96200.69;10511853;28;3119;-74
2022/11/13 10:16:00;;;;;;;;;;;;;;;4.29;100.00;96199.00;10516149;28;3206;-69
2022/11/13 10:21:03;;;;;;;;;;;;;;;4.15;100.00;96184.25;10509227;28;3116;-74
2022/11/13 10:26:11;;;;;;;;;;;;;;;3.93;100.00;96180.38;10515769;28;3135;-71
2022/11/13 10:31:14;;;;;;;;;;;;;;;4.66;100.00;96168.84;10507958;28;3216;-71
2022/11/13 10:36:18;;;;;;;;;;;;;;;4.32;100.00;96157.81;10510868;28;3186;-71
2022/11/13 10:41:21;;;;;;;;;;;;;;;4.70;100.00;96157.50;10513393;28;3167;-71
2022/11/13 10:46:24;;;;;;;;;;;;;;;4.85;100.00;96141.13;10517888;28;3123;-73
2022/11/13 10:51:27;;;;;;;;;;;;;;;4.78;100.00;96132.41;10516865;28;3123;-75
2022/11/13 10:56:30;;;;;;;;;;;;;;;4.61;100.00;96116.28;10516539;28;3219;-73
2022/11/13 11:01:33;;;;;;;;;;;;;;;4.94;100.00;96109.63;10515855;28;3142;-71
2022/11/13 11:06:37;;;;;;;;;;;;;;;4.65;100.00;96104.13;10513794;28;3170;-71
2022/11/13 11:12:15;;;;;;;;;;;;;;;4.45;100.00;96103.59;10519933;28;3210;-72
2022/11/13 11:17:19;;;;;;;;;;;;;;;4.51;100.00;96095.50;10504397;28;3222;-72
2022/11/13 11:22:22;;;;;;;;;;;;;;;4.38;100.00;96087.72;10514698;28;3099;-72
2022/11/13 11:27:25;;;;;;;;;;;;;;;4.54;100.00;96096.91;10514357;28;3197;-71
2022/11/13 11:32:28;;;;;;;;;;;;;;;4.74;100.00;96077.97;10517636;28;3198;-71
2022/11/13 11:37:32;;;;;;;;;;;;;;;4.54;100.00;96079.09;10517592;28;3138;-71
2022/11/13 11:42:35;;;;;;;;;;;;;;;4.70;100.00;96063.47;10515170;28;3426;-71
2022/11/13 11:47:39;;;;;;;;;;;;;;;4.96;100.00;96054.25;10523428;28;3305;-71
2022/11/13 11:52:47;;;;;;;;;;;;;;;5.11;100.00;96039.44;10512635;28;3122;-72
2022/11/13 11:57:50;;;;;;;;;;;;;;;5.06;100.00;96036.66;10514557;28;2996;-74
2022/11/13 12:02:53;;;;;;;;;;;;;;;5.04;100.00;96029.94;10521497;28;3255;-75
2022/11/13 12:07:57;;;;;;;;;;;;;;;5.18;100.00;96027.84;10509418;28;3242;-71
2022/11/13 12:13:00;;;;;;;;;;;;;;;5.34;100.00;96030.63;10505558;28;3250;-73
2022/11/13 12:18:03;;;;;;;;;;;;;;;5.43;100.00;96026.53;10510927;28;3194;-71
2022/11/13 12:23:06;;;;;;;;;;;;;;;5.52;100.00;96018.16;10507528;28;3186;-70
2022/11/13 12:28:09;;;;;;;;;;;;;;;5.68;100.00;96012.91;10507532;28;3112;-72
2022/11/13 12:33:12;;;;;;;;;;;;;;;5.95;100.00;95997.19;10510492;28;3203;-71
2022/11/13 12:38:16;;;;;;;;;;;;;;;5.95;100.00;95975.81;10513010;28;3202;-71
2022/11/13 12:43:19;;;;;;;;;;;;;;;6.08;100.00;95969.38;10509707;28;3131;-71
2022/11/13 12:48:22;;;;;;;;;;;;;;;6.16;100.00;95965.50;10521107;28;3118;-70
2022/11/13 12:53:26;;;;;;;;;;;;;;;6.25;100.00;95964.09;10503013;28;3249;-70
2022/11/13 12:58:30;;;;;;;;;;;;;;;6.47;100.00;95972.97;10513757;28;3182;-70
2022/11/13 13:03:34;;;;;;;;;;;;;;;6.48;100.00;95963.91;10503344;28;3080;-73
2022/11/13 13:08:37;;;;;;;;;;;;;;;6.65;100.00;95952.44;10512915;28;3242;-73
2022/11/13 13:13:40;;;;;;;;;;;;;;;6.73;100.00;95949.34;10520845;28;3144;-76
2022/11/13 13:18:44;;;;;;;;;;;;;;;6.71;100.00;95927.41;10517242;28;3166;-74
2022/11/13 13:23:47;;;;;;;;;;;;;;;6.79;100.00;95916.28;10502420;28;3132;-73
2022/11/13 13:28:50;;;;;;;;;;;;;;;6.95;100.00;95920.00;10514907;28;3258;-70
2022/11/13 13:33:53;;;;;;;;;;;;;;;6.94;100.00;95923.72;10505366;28;3280;-68
2022/11/13 13:38:57;;;;;;;;;;;;;;;7.12;100.00;95909.25;10505512;28;3131;-68
2022/11/13 13:44:01;;;;;;;;;;;;;;;7.10;100.00;95900.66;10503142;28;3131;-73
2022/11/13 13:49:04;;;;;;;;;;;;;;;7.22;100.00;95904.84;10505294;28;3243;-70
2022/11/13 13:54:07;;;;;;;;;;;;;;;7.29;100.00;95881.38;10501156;28;3175;-69
2022/11/13 13:59:10;;;;;;;;;;;;;;;7.47;100.00;95874.91;10503652;28;3178;-68
2022/11/13 14:04:13;;;;;;;;;;;;;;;7.52;100.00;95861.59;10507083;28;3110;-69
2022/11/13 14:09:20;;;;;;;;;;;;;;;7.52;100.00;95861.59;10499258;28;3158;-70
2022/11/13 14:14:23;;;;;;;;;;;;;;;7.44;100.00;95870.03;10501566;28;3189;-75
2022/11/13 14:19:27;;;;;;;;;;;;;;;7.50;100.00;95869.03;10497703;28;3161;-77
2022/11/13 14:24:32;;;;;;;;;;;;;;;7.50;100.00;95866.38;10500941;28;3245;-68
2022/11/13 14:29:35;;;;;;;;;;;;;;;7.34;100.00;95859.25;10495032;28;3175;-71
2022/11/13 14:34:39;;;;;;;;;;;;;;;7.62;100.00;95854.72;10503814;27;3127;-77
2022/11/13 14:39:42;;;;;;;;;;;;;;;7.51;100.00;95845.81;10498726;28;3075;-72
2022/11/13 14:44:47;;;;;;;;;;;;;;;7.52;100.00;95842.06;10507348;28;3182;-68
2022/11/13 14:49:50;;;;;;;;;;;;;;;7.35;100.00;95844.00;10509381;28;3340;-69
2022/11/13 14:54:53;;;;;;;;;;;;;;;7.27;100.00;95853.28;10512096;28;3084;-69
2022/11/13 15:00:17;;;;;;;;;;;;;;;7.34;100.00;95850.44;10505643;28;3130;-69
2022/11/13 15:05:21;;;;;;;;;;;;;;;7.47;100.00;95842.81;10507437;28;3289;-69
2022/11/13 15:10:24;;;;;;;;;;;;;;;7.46;100.00;95830.50;10507442;28;3084;-68
2022/11/13 15:15:27;;;;;;;;;;;;;;;7.46;100.00;95835.06;10516045;28;3209;-70
2022/11/13 15:20:30;;;;;;;;;;;;;;;7.30;100.00;95831.38;10517299;28;3183;-70
2022/11/13 15:25:34;;;;;;;;;;;;;;;7.21;100.00;95827.56;10513445;28;3517;-70
2022/11/13 15:30:37;;;;;;;;;;;;;;;7.07;100.00;95829.00;10516200;28;3122;-70
2022/11/13 15:35:40;;;;;;;;;;;;;;;6.96;100.00;95834.22;10517925;28;3227;-69
2022/11/13 15:40:43;;;;;;;;;;;;;;;6.91;100.00;95842.19;10524349;28;3139;-70
2022/11/13 15:45:46;;;;;;;;;;;;;;;6.84;100.00;95838.88;10522711;28;3412;-73
2022/11/13 15:50:50;;;;;;;;;;;;;;;6.99;100.00;95833.72;10525170;28;3029;-70
2022/11/13 15:55:53;;;;;;;;;;;;;;;6.75;100.00;95832.38;10521446;28;3126;-69
2022/11/13 16:00:57;;;;;;;;;;;;;;;6.72;100.00;95832.84;10512723;28;3187;-70
2022/11/13 16:06:00;;;;;;;;;;;;;;;6.60;100.00;95834.81;10511888;28;3178;-72
2022/11/13 16:11:03;;;;;;;;;;;;;;;6.42;100.00;95831.38;10511561;28;3271;-71
2022/11/13 16:16:06;;;;;;;;;;;;;;;6.32;100.00;95831.25;10510233;28;3134;-70
2022/11/13 16:21:09;;;;;;;;;;;;;;;6.13;100.00;95833.38;10508282;28;3154;-68
2022/11/13 16:26:12;;;;;;;;;;;;;;;6.31;100.00;95824.28;10510729;28;3174;-69
2022/11/13 16:31:15;;;;;;;;;;;;;;;6.35;100.00;95828.06;10509122;28;3195;-69
2022/11/13 16:36:20;;;;;;;;;;;;;;;6.24;100.00;95829.00;10507820;28;3276;-70
2022/11/13 16:41:23;;;;;;;;;;;;;;;6.15;100.00;95831.25;10509727;28;3289;-70
2022/11/13 16:46:26;;;;;;;;;;;;;;;6.17;100.00;95823.00;10497893;28;3178;-69
2022/11/13 16:51:30;;;;;;;;;;;;;;;6.04;100.00;95823.31;10513725;28;3185;-69
2022/11/13 16:56:33;;;;;;;;;;;;;;;5.91;100.00;95809.25;10506616;28;3167;-70
2022/11/13 17:01:36;;;;;;;;;;;;;;;5.70;100.00;95807.28;10505952;28;3251;-69
2022/11/13 17:06:39;;;;;;;;;;;;;;;5.55;100.00;95815.06;10500632;28;3147;-70
2022/11/13 17:11:42;;;;;;;;;;;;;;;5.36;100.00;95812.59;10512504;28;3147;-74
2022/11/13 17:16:45;;;;;;;;;;;;;;;5.33;100.00;95802.41;10501927;28;3170;-71
2022/11/13 17:21:59;;;;;;;;;;;;;;;5.28;100.00;95805.00;10497577;28;3127;-71
2022/11/13 17:27:03;;;;;;;;;;;;;;;5.16;100.00;95801.56;10505530;28;3150;-69
2022/11/13 17:32:06;;;;;;;;;;;;;;;5.15;100.00;95805.25;10501771;28;3171;-69
2022/11/13 17:37:09;;;;;;;;;;;;;;;5.09;100.00;95801.72;10507119;28;3171;-71
2022/11/13 17:42:12;;;;;;;;;;;;;;;5.12;100.00;95798.56;10514950;28;3183;-71
2022/11/13 17:47:15;;;;;;;;;;;;;;;4.97;100.00;95813.47;10504558;28;3155;-75
2022/11/13 17:52:19;;;;;;;;;;;;;;;4.87;100.00;95822.06;10498768;28;3185;-76
2022/11/13 17:57:22;;;;;;;;;;;;;;;4.88;100.00;95813.00;10499636;28;3179;-67
2022/11/13 18:02:29;;;;;;;;;;;;;;;4.75;100.00;95818.59;10504038;28;3164;-68
2022/11/13 18:07:33;;;;;;;;;;;;;;;4.73;100.00;95808.19;10501433;28;3155;-68
2022/11/13 18:12:36;;;;;;;;;;;;;;;4.76;100.00;95814.91;10512263;28;3147;-68
2022/11/13 18:17:39;;;;;;;;;;;;;;;4.61;100.00;95818.06;10505893;28;3124;-69
2022/11/13 18:22:42;;;;;;;;;;;;;;;4.50;100.00;95813.56;10496604;28;3174;-72
2022/11/13 18:27:45;;;;;;;;;;;;;;;4.43;100.00;95819.00;10505752;28;3142;-69
2022/11/13 18:32:49;;;;;;;;;;;;;;;4.41;100.00;95820.31;10507529;28;3194;-68
2022/11/13 18:37:52;;;;;;;;;;;;;;;4.32;100.00;95822.50;10507119;28;3094;-68
2022/11/13 18:42:55;;;;;;;;;;;;;;;4.28;100.00;95808.06;10506147;28;3175;-70
2022/11/13 18:47:58;;;;;;;;;;;;;;;4.29;100.00;95804.34;10518230;28;3563;-71
2022/11/13 18:53:01;;;;;;;;;;;;;;;4.17;100.00;95804.34;10501239;28;3218;-70
2022/11/13 18:58:05;;;;;;;;;;;;;;;4.11;100.00;95815.09;10499490;28;3146;-70
2022/11/13 19:03:08;;;;;;;;;;;;;;;4.00;100.00;95824.69;10514524;28;3213;-69
2022/11/13 19:08:12;;;;;;;;;;;;;;;3.94;100.00;95825.63;10511298;28;3241;-72
2022/11/13 19:13:15;;;;;;;;;;;;;;;3.82;100.00;95838.94;10514923;28;3151;-71
2022/11/13 19:18:18;;;;;;;;;;;;;;;3.77;100.00;95839.59;10526887;28;3102;-67
2022/11/13 19:23:21;;;;;;;;;;;;;;;3.73;100.00;95841.09;10517363;28;3126;-69
2022/11/13 19:28:25;;;;;;;;;;;;;;;3.67;100.00;95826.06;10516727;28;3198;-72
2022/11/13 19:33:28;;;;;;;;;;;;;;;3.68;100.00;95819.69;10514227;28;3221;-71
2022/11/13 19:38:31;;;;;;;;;;;;;;;3.64;100.00;95823.88;10514146;28;3178;-70
2022/11/13 19:43:36;;;;;;;;;;;;;;;3.72;100.00;95831.50;10513698;28;3139;-69
2022/11/13 19:48:39;;;;;;;;;;;;;;;3.67;100.00;95823.41;10497012;28;3275;-69
2022/11/13 19:53:45;;;;;;;;;;;;;;;3.68;100.00;95830.31;10509880;28;3211;-70
2022/11/13 19:58:48;;;;;;;;;;;;;;;3.67;100.00;95820.75;10518519;28;3215;-71
2022/11/13 20:03:51;;;;;;;;;;;;;;;3.75;100.00;95831.06;10513469;28;3063;-70
2022/11/13 20:08:54;;;;;;;;;;;;;;;3.81;100.00;95831.97;10517289;28;3243;-69
2022/11/13 20:13:57;;;;;;;;;;;;;;;3.74;100.00;95821.44;10517658;28;3214;-69
2022/11/13 20:19:02;;;;;;;;;;;;;;;3.74;100.00;95818.78;10507376;28;3159;-70
2022/11/13 20:24:05;;;;;;;;;;;;;;;3.73;100.00;95803.06;10518023;28;3147;-72
2022/11/13 20:29:08;;;;;;;;;;;;;;;3.76;100.00;95818.56;10506410;28;3226;-72
2022/11/13 20:34:11;;;;;;;;;;;;;;;3.74;100.00;95816.13;10508072;28;3096;-68
2022/11/13 20:39:15;;;;;;;;;;;;;;;3.74;100.00;95816.13;10508619;28;3181;-67
2022/11/13 20:44:22;;;;;;;;;;;;;;;3.81;100.00;95821.31;10518326;28;3131;-70
2022/11/13 20:49:25;;;;;;;;;;;;;;;3.82;100.00;95816.81;10516852;28;3270;-70
2022/11/13 20:54:28;;;;;;;;;;;;;;;3.92;100.00;95811.75;10507824;28;3083;-67
2022/11/13 20:59:31;;;;;;;;;;;;;;;3.95;100.00;95811.31;10510498;28;3210;-68
2022/11/13 21:04:35;;;;;;;;;;;;;;;4.03;100.00;95801.13;10520772;28;3288;-70
2022/11/13 21:09:38;;;;;;;;;;;;;;;4.05;100.00;95816.84;10510428;28;3527;-69
2022/11/13 21:14:42;;;;;;;;;;;;;;;4.21;100.00;95810.84;10514882;28;3127;-70
2022/11/13 21:19:45;;;;;;;;;;;;;;;4.27;100.00;95799.25;10507237;28;3229;-70
2022/11/13 21:24:48;;;;;;;;;;;;;;;4.24;100.00;95810.34;10514799;28;3323;-71
2022/11/13 21:29:52;;;;;;;;;;;;;;;4.28;100.00;95808.84;10501794;28;3291;-69
2022/11/13 21:34:58;;;;;;;;;;;;;;;4.34;100.00;95799.94;10504704;28;3198;-71
2022/11/13 21:40:01;;;;;;;;;;;;;;;4.31;100.00;95795.06;10499503;28;3123;-69
2022/11/13 21:45:04;;;;;;;;;;;;;;;4.54;100.00;95782.78;10515837;28;3302;-70
2022/11/13 21:50:07;;;;;;;;;;;;;;;4.44;100.00;95783.38;10498265;28;3243;-69
2022/11/13 21:55:15;;;;;;;;;;;;;;;4.27;100.00;95782.50;10504524;28;3178;-69
2022/11/13 22:00:18;;;;;;;;;;;;;;;4.32;100.00;95780.72;10502701;28;3142;-71
2022/11/13 22:05:21;;;;;;;;;;;;;;;4.37;100.00;95787.22;10507245;28;3293;-68
2022/11/13 22:10:26;;;;;;;;;;;;;;;4.39;100.00;95785.94;10506135;28;3166;-71
2022/11/13 22:15:29;;;;;;;;;;;;;;;4.45;100.00;95779.66;10508408;28;3220;-69
2022/11/13 22:20:32;;;;;;;;;;;;;;;4.47;100.00;95790.91;10507350;28;3048;-68
2022/11/13 22:25:35;;;;;;;;;;;;;;;4.49;100.00;95807.44;10501366;28;3432;-68
2022/11/13 22:30:38;;;;;;;;;;;;;;;4.67;100.00;95803.00;10499106;28;3138;-70
2022/11/13 22:35:41;;;;;;;;;;;;;;;4.72;100.00;95800.44;10504480;28;3115;-70
2022/11/13 22:40:44;;;;;;;;;;;;;;;4.60;100.00;95795.97;10508287;28;3196;-68
2022/11/13 22:45:47;;;;;;;;;;;;;;;4.72;100.00;95795.94;10510160;28;3159;-68
2022/11/13 22:50:50;;;;;;;;;;;;;;;4.75;100.00;95789.31;10512919;28;3134;-67
2022/11/13 22:55:53;;;;;;;;;;;5.50;99.90;;;4.55;100.00;95792.38;10512620;28;3267;-67
2022/11/13 23:00:56;;;;;;;;;;;;;;;4.67;100.00;95765.72;10509389;28;3186;-69
2022/11/13 23:05:59;;;;;;;;;;;;;;;4.72;100.00;95785.28;10508161;28;3209;-72
2022/11/13 23:11:02;;;;;;;;;;;;;;;4.80;100.00;95781.44;10509418;28;3131;-67
2022/11/13 23:16:07;;;;;;;;;;;;;;;4.66;100.00;95786.22;10514313;28;3171;-68
2022/11/13 23:21:09;;;;;;;;;;;5.60;99.90;;;4.84;100.00;95756.75;10508720;28;3172;-73
2022/11/13 23:26:12;;;;;;;;;;;5.60;99.90;;;4.86;100.00;95740.53;10508422;28;3214;-67
2022/11/13 23:31:15;;;;;;;;;;;5.70;99.90;;;4.68;100.00;95736.19;10515902;28;3092;-68
2022/11/13 23:36:19;;;;;;;;;;;5.70;99.90;;;4.87;100.00;95732.28;10508765;28;3210;-68
2022/11/13 23:41:22;;;;;;;;;;;5.50;99.90;;;4.98;100.00;95735.97;10512488;28;3207;-67
2022/11/13 23:46:25;;;;;;;;;;;5.80;99.90;;;4.93;100.00;95735.06;10509089;28;3255;-68
2022/11/13 23:51:29;;;;;;;;;;;;;;;4.65;100.00;95744.69;10507879;28;3330;-66
2022/11/13 23:56:31;;;;;;;;;;;5.80;99.90;;;4.74;100.00;95745.09;10513214;28;3143;-67
